sensor_id;sensor_type;location;lat;lon;timestamp;temperature;humidity
1626;DHT22;806;48.770;9.156;2024-03-29T00:02:13;8.40;99.90
1626;DHT22;806;48.770;9.156;2024-03-29T00:04:39;8.40;99.90
1626;DHT22;806;48.770;9.156;2024-03-29T00:07:06;8.40;99.90
1626;DHT22;806;48.770;9.156;2024-03-29T00:09:32;8.50;99.90
1626;DHT22;806;48.770;9.156;2024-03-29T00:11:58;8.60;99.90
1626;DHT22;806;48.770;9.156;2024-03-29T00:14:24;8.60;99.90
1626;DHT22;806;48.770;9.156;2024-03-29T00:16:50;8.70;99.90
1626;DHT22;806;48.770;9.156;2024-03-29T00:19:18;8.70;99.90
1626;DHT22;806;48.770;9.156;2024-03-29T00:21:44;8.70;99.90
1626;DHT22;806;48.770;9.156;2024-03-29T00:24:10;8.70;99.90
1626;DHT22;806;48.770;9.156;2024-03-29T00:26:36;8.70;99.90
1626;DHT22;806;48.770;9.156;2024-03-29T00:29:02;8.70;99.90
1626;DHT22;806;48.770;9.156;2024-03-29T00:31:28;8.70;99.90
1626;DHT22;806;48.770;9.156;2024-03-29T00:33:54;8.70;99.90
1626;DHT22;806;48.770;9.156;2024-03-29T00:36:21;8.70;99.90
1626;DHT22;806;48.770;9.156;2024-03-29T00:38:51;8.60;99.90
1626;DHT22;806;48.770;9.156;2024-03-29T00:41:17;8.60;99.90
1626;DHT22;806;48.770;9.156;2024-03-29T00:43:43;8.50;99.90
1626;DHT22;806;48.770;9.156;2024-03-29T00:46:09;8.60;99.90
1626;DHT22;806;48.770;9.156;2024-03-29T00:48:35;8.60;99.90
1626;DHT22;806;48.770;9.156;2024-03-29T00:51:01;8.60;99.90
1626;DHT22;806;48.770;9.156;2024-03-29T00:53:29;8.60;99.90
1626;DHT22;806;48.770;9.156;2024-03-29T00:55:55;8.60;99.90
1626;DHT22;806;48.770;9.156;2024-03-29T00:58:21;8.60;99.90
1626;DHT22;806;48.770;9.156;2024-03-29T01:00:47;8.70;99.90
1626;DHT22;806;48.770;9.156;2024-03-29T01:03:13;8.70;99.90
1626;DHT22;806;48.770;9.156;2024-03-29T01:05:39;8.70;99.90
1626;DHT22;806;48.770;9.156;2024-03-29T01:08:05;8.80;99.90
1626;DHT22;806;48.770;9.156;2024-03-29T01:10:33;8.80;99.90
1626;DHT22;806;48.770;9.156;2024-03-29T01:12:59;8.90;99.90
1626;DHT22;806;48.770;9.156;2024-03-29T01:15:25;8.90;99.90
1626;DHT22;806;48.770;9.156;2024-03-29T01:17:51;8.90;99.90
1626;DHT22;806;48.770;9.156;2024-03-29T01:20:17;8.90;99.90
1626;DHT22;806;48.770;9.156;2024-03-29T01:22:43;8.90;99.90
1626;DHT22;806;48.770;9.156;2024-03-29T01:25:09;8.90;99.90
1626;DHT22;806;48.770;9.156;2024-03-29T01:27:36;8.90;99.90
1626;DHT22;806;48.770;9.156;2024-03-29T01:30:02;8.90;99.90
1626;DHT22;806;48.770;9.156;2024-03-29T01:32:28;8.90;99.90
1626;DHT22;806;48.770;9.156;2024-03-29T01:34:54;8.90;99.90
1626;DHT22;806;48.770;9.156;2024-03-29T01:37:20;8.90;99.90
1626;DHT22;806;48.770;9.156;2024-03-29T01:39:46;8.90;99.90
1626;DHT22;806;48.770;9.156;2024-03-29T01:42:12;8.90;99.90
1626;DHT22;806;48.770;9.156;2024-03-29T01:44:40;8.90;99.90
1626;DHT22;806;48.770;9.156;2024-03-29T01:47:07;8.90;99.90
1626;DHT22;806;48.770;9.156;2024-03-29T01:49:34;8.90;99.90
1626;DHT22;806;48.770;9.156;2024-03-29T01:52:02;8.90;99.90
1626;DHT22;806;48.770;9.156;2024-03-29T01:54:29;8.90;99.90
1626;DHT22;806;48.770;9.156;2024-03-29T01:56:56;8.90;99.90
1626;DHT22;806;48.770;9.156;2024-03-29T01:59:25;9.00;99.90
1626;DHT22;806;48.770;9.156;2024-03-29T02:01:54;9.00;99.90
1626;DHT22;806;48.770;9.156;2024-03-29T02:04:21;9.10;99.90
1626;DHT22;806;48.770;9.156;2024-03-29T02:06:49;9.10;99.90
1626;DHT22;806;48.770;9.156;2024-03-29T02:09:16;9.10;99.90
1626;DHT22;806;48.770;9.156;2024-03-29T02:11:43;9.10;99.90
1626;DHT22;806;48.770;9.156;2024-03-29T02:14:10;9.10;99.90
1626;DHT22;806;48.770;9.156;2024-03-29T02:16:37;9.10;99.90
1626;DHT22;806;48.770;9.156;2024-03-29T02:19:05;9.10;99.90
1626;DHT22;806;48.770;9.156;2024-03-29T02:21:33;9.10;99.90
1626;DHT22;806;48.770;9.156;2024-03-29T02:24:07;9.10;99.90
1626;DHT22;806;48.770;9.156;2024-03-29T02:26:34;9.10;99.90
1626;DHT22;806;48.770;9.156;2024-03-29T02:29:04;9.10;99.90
1626;DHT22;806;48.770;9.156;2024-03-29T02:31:31;9.10;99.90
1626;DHT22;806;48.770;9.156;2024-03-29T02:33:58;9.20;99.90
1626;DHT22;806;48.770;9.156;2024-03-29T02:36:25;9.20;99.90
1626;DHT22;806;48.770;9.156;2024-03-29T02:38:52;9.20;99.90
1626;DHT22;806;48.770;9.156;2024-03-29T02:41:21;9.20;99.90
1626;DHT22;806;48.770;9.156;2024-03-29T02:43:48;9.30;99.90
1626;DHT22;806;48.770;9.156;2024-03-29T02:46:15;9.30;99.90
1626;DHT22;806;48.770;9.156;2024-03-29T02:48:41;9.40;99.90
1626;DHT22;806;48.770;9.156;2024-03-29T02:51:08;9.30;99.90
1626;DHT22;806;48.770;9.156;2024-03-29T02:53:34;9.20;99.90
1626;DHT22;806;48.770;9.156;2024-03-29T02:56:01;9.20;99.90
1626;DHT22;806;48.770;9.156;2024-03-29T02:58:29;9.20;99.90
1626;DHT22;806;48.770;9.156;2024-03-29T03:00:56;9.30;99.90
1626;DHT22;806;48.770;9.156;2024-03-29T03:03:26;9.30;99.90
1626;DHT22;806;48.770;9.156;2024-03-29T03:05:53;9.20;99.90
1626;DHT22;806;48.770;9.156;2024-03-29T03:08:20;9.30;99.90
1626;DHT22;806;48.770;9.156;2024-03-29T03:11:04;9.30;99.90
1626;DHT22;806;48.770;9.156;2024-03-29T03:13:33;9.30;99.90
1626;DHT22;806;48.770;9.156;2024-03-29T03:16:00;9.30;99.90
1626;DHT22;806;48.770;9.156;2024-03-29T03:18:27;9.30;99.90
1626;DHT22;806;48.770;9.156;2024-03-29T03:20:54;9.30;99.90
1626;DHT22;806;48.770;9.156;2024-03-29T03:23:20;9.30;99.90
1626;DHT22;806;48.770;9.156;2024-03-29T03:25:53;9.40;99.90
1626;DHT22;806;48.770;9.156;2024-03-29T03:28:20;9.30;99.90
1626;DHT22;806;48.770;9.156;2024-03-29T03:30:48;9.30;99.90
1626;DHT22;806;48.770;9.156;2024-03-29T03:33:18;9.40;99.90
1626;DHT22;806;48.770;9.156;2024-03-29T03:35:45;9.40;99.90
1626;DHT22;806;48.770;9.156;2024-03-29T03:38:12;9.50;99.90
1626;DHT22;806;48.770;9.156;2024-03-29T03:40:39;9.50;99.90
1626;DHT22;806;48.770;9.156;2024-03-29T03:43:06;9.50;99.90
1626;DHT22;806;48.770;9.156;2024-03-29T03:45:37;9.50;99.90
1626;DHT22;806;48.770;9.156;2024-03-29T03:48:05;9.60;99.90
1626;DHT22;806;48.770;9.156;2024-03-29T03:50:33;9.60;99.90
1626;DHT22;806;48.770;9.156;2024-03-29T03:52:59;9.60;99.90
1626;DHT22;806;48.770;9.156;2024-03-29T03:55:26;9.60;99.90
1626;DHT22;806;48.770;9.156;2024-03-29T03:57:53;9.60;99.90
1626;DHT22;806;48.770;9.156;2024-03-29T04:00:21;9.60;99.90
1626;DHT22;806;48.770;9.156;2024-03-29T04:02:47;9.60;99.90
1626;DHT22;806;48.770;9.156;2024-03-29T04:05:17;9.60;99.90
1626;DHT22;806;48.770;9.156;2024-03-29T04:07:43;9.60;99.90
1626;DHT22;806;48.770;9.156;2024-03-29T04:10:10;9.60;99.90
1626;DHT22;806;48.770;9.156;2024-03-29T04:12:36;9.60;99.90
1626;DHT22;806;48.770;9.156;2024-03-29T04:15:04;9.60;99.90
1626;DHT22;806;48.770;9.156;2024-03-29T04:17:31;9.70;99.90
1626;DHT22;806;48.770;9.156;2024-03-29T04:19:58;9.70;99.90
1626;DHT22;806;48.770;9.156;2024-03-29T04:22:27;9.70;99.90
1626;DHT22;806;48.770;9.156;2024-03-29T04:24:55;9.70;99.90
1626;DHT22;806;48.770;9.156;2024-03-29T04:27:21;9.70;99.90
1626;DHT22;806;48.770;9.156;2024-03-29T04:29:50;9.80;99.90
1626;DHT22;806;48.770;9.156;2024-03-29T04:32:17;9.80;99.90
1626;DHT22;806;48.770;9.156;2024-03-29T04:34:46;9.80;99.90
1626;DHT22;806;48.770;9.156;2024-03-29T04:37:12;9.80;99.90
1626;DHT22;806;48.770;9.156;2024-03-29T04:39:41;9.70;99.90
1626;DHT22;806;48.770;9.156;2024-03-29T04:42:08;9.80;99.90
1626;DHT22;806;48.770;9.156;2024-03-29T04:44:35;9.80;99.90
1626;DHT22;806;48.770;9.156;2024-03-29T04:47:02;9.80;99.90
1626;DHT22;806;48.770;9.156;2024-03-29T04:49:29;9.90;99.90
1626;DHT22;806;48.770;9.156;2024-03-29T04:52:00;9.80;99.90
1626;DHT22;806;48.770;9.156;2024-03-29T04:54:27;9.80;99.90
1626;DHT22;806;48.770;9.156;2024-03-29T04:56:55;9.80;99.90
1626;DHT22;806;48.770;9.156;2024-03-29T04:59:22;9.80;99.90
1626;DHT22;806;48.770;9.156;2024-03-29T05:01:49;9.90;99.90
1626;DHT22;806;48.770;9.156;2024-03-29T05:04:18;9.90;99.90
1626;DHT22;806;48.770;9.156;2024-03-29T05:06:51;9.90;99.90
1626;DHT22;806;48.770;9.156;2024-03-29T05:09:18;9.90;99.90
1626;DHT22;806;48.770;9.156;2024-03-29T05:11:45;9.90;99.90
1626;DHT22;806;48.770;9.156;2024-03-29T05:14:14;9.90;99.90
1626;DHT22;806;48.770;9.156;2024-03-29T05:16:42;9.90;99.90
1626;DHT22;806;48.770;9.156;2024-03-29T05:19:09;9.90;99.90
1626;DHT22;806;48.770;9.156;2024-03-29T05:21:36;9.90;99.90
1626;DHT22;806;48.770;9.156;2024-03-29T05:24:04;9.90;99.90
1626;DHT22;806;48.770;9.156;2024-03-29T05:26:31;9.90;99.90
1626;DHT22;806;48.770;9.156;2024-03-29T05:28:58;9.90;99.90
1626;DHT22;806;48.770;9.156;2024-03-29T05:31:26;9.90;99.90
1626;DHT22;806;48.770;9.156;2024-03-29T05:33:53;9.90;99.90
1626;DHT22;806;48.770;9.156;2024-03-29T05:36:20;9.90;99.90
1626;DHT22;806;48.770;9.156;2024-03-29T05:38:48;9.90;99.90
1626;DHT22;806;48.770;9.156;2024-03-29T05:41:15;10.00;99.90
1626;DHT22;806;48.770;9.156;2024-03-29T05:43:42;9.90;99.90
1626;DHT22;806;48.770;9.156;2024-03-29T05:46:09;10.00;99.90
1626;DHT22;806;48.770;9.156;2024-03-29T05:48:37;9.90;99.90
1626;DHT22;806;48.770;9.156;2024-03-29T05:51:04;9.90;99.90
1626;DHT22;806;48.770;9.156;2024-03-29T05:53:31;10.00;99.90
1626;DHT22;806;48.770;9.156;2024-03-29T05:55:58;10.00;99.90
1626;DHT22;806;48.770;9.156;2024-03-29T05:58:25;10.00;99.90
1626;DHT22;806;48.770;9.156;2024-03-29T06:00:52;10.00;99.90
1626;DHT22;806;48.770;9.156;2024-03-29T06:03:19;10.00;99.90
1626;DHT22;806;48.770;9.156;2024-03-29T06:05:47;10.00;99.90
1626;DHT22;806;48.770;9.156;2024-03-29T06:08:14;10.00;99.90
1626;DHT22;806;48.770;9.156;2024-03-29T06:10:42;10.00;99.90
1626;DHT22;806;48.770;9.156;2024-03-29T06:13:09;10.10;99.90
1626;DHT22;806;48.770;9.156;2024-03-29T06:15:53;10.10;99.90
1626;DHT22;806;48.770;9.156;2024-03-29T06:18:37;10.20;99.90
1626;DHT22;806;48.770;9.156;2024-03-29T06:21:06;10.20;99.90
1626;DHT22;806;48.770;9.156;2024-03-29T06:23:33;10.30;99.90
1626;DHT22;806;48.770;9.156;2024-03-29T06:26:00;10.30;99.90
1626;DHT22;806;48.770;9.156;2024-03-29T06:28:27;10.30;99.90
1626;DHT22;806;48.770;9.156;2024-03-29T06:30:54;10.40;99.90
1626;DHT22;806;48.770;9.156;2024-03-29T06:33:20;10.50;99.90
1626;DHT22;806;48.770;9.156;2024-03-29T06:35:53;10.60;99.90
1626;DHT22;806;48.770;9.156;2024-03-29T06:38:21;10.60;99.90
1626;DHT22;806;48.770;9.156;2024-03-29T06:40:48;10.70;99.90
1626;DHT22;806;48.770;9.156;2024-03-29T06:43:15;10.80;99.90
1626;DHT22;806;48.770;9.156;2024-03-29T06:45:42;10.90;99.90
1626;DHT22;806;48.770;9.156;2024-03-29T06:48:10;10.90;99.90
1626;DHT22;806;48.770;9.156;2024-03-29T06:50:37;10.90;99.90
1626;DHT22;806;48.770;9.156;2024-03-29T06:53:06;10.90;99.90
1626;DHT22;806;48.770;9.156;2024-03-29T06:55:35;10.90;99.90
1626;DHT22;806;48.770;9.156;2024-03-29T06:58:03;11.00;99.90
1626;DHT22;806;48.770;9.156;2024-03-29T07:00:31;11.00;99.90
1626;DHT22;806;48.770;9.156;2024-03-29T07:02:58;11.10;99.90
1626;DHT22;806;48.770;9.156;2024-03-29T07:05:25;11.20;99.90
1626;DHT22;806;48.770;9.156;2024-03-29T07:07:52;11.20;99.90
1626;DHT22;806;48.770;9.156;2024-03-29T07:10:19;11.20;99.90
1626;DHT22;806;48.770;9.156;2024-03-29T07:12:48;11.30;99.90
1626;DHT22;806;48.770;9.156;2024-03-29T07:15:15;11.30;99.90
1626;DHT22;806;48.770;9.156;2024-03-29T07:17:42;11.20;99.90
1626;DHT22;806;48.770;9.156;2024-03-29T07:20:10;11.10;99.90
1626;DHT22;806;48.770;9.156;2024-03-29T07:22:37;11.00;99.90
1626;DHT22;806;48.770;9.156;2024-03-29T07:25:05;11.00;99.90
1626;DHT22;806;48.770;9.156;2024-03-29T07:27:32;10.90;99.90
1626;DHT22;806;48.770;9.156;2024-03-29T07:30:02;10.90;99.90
1626;DHT22;806;48.770;9.156;2024-03-29T07:32:30;10.80;99.90
1626;DHT22;806;48.770;9.156;2024-03-29T07:34:57;10.70;99.90
1626;DHT22;806;48.770;9.156;2024-03-29T07:37:25;10.70;99.90
1626;DHT22;806;48.770;9.156;2024-03-29T07:39:52;10.60;99.90
1626;DHT22;806;48.770;9.156;2024-03-29T07:42:19;10.40;99.90
1626;DHT22;806;48.770;9.156;2024-03-29T07:44:46;10.20;99.90
1626;DHT22;806;48.770;9.156;2024-03-29T07:47:14;9.90;1.00
1626;DHT22;806;48.770;9.156;2024-03-29T07:49:41;9.60;1.00
1626;DHT22;806;48.770;9.156;2024-03-29T07:52:08;9.40;1.00
1626;DHT22;806;48.770;9.156;2024-03-29T07:54:35;9.30;1.00
1626;DHT22;806;48.770;9.156;2024-03-29T07:57:04;9.20;1.00
1626;DHT22;806;48.770;9.156;2024-03-29T07:59:33;9.10;99.90
1626;DHT22;806;48.770;9.156;2024-03-29T08:02:00;9.10;1.00
1626;DHT22;806;48.770;9.156;2024-03-29T08:04:29;9.20;99.90
1626;DHT22;806;48.770;9.156;2024-03-29T08:06:56;9.20;99.90
1626;DHT22;806;48.770;9.156;2024-03-29T08:09:23;9.20;1.00
1626;DHT22;806;48.770;9.156;2024-03-29T08:11:50;9.10;99.90
1626;DHT22;806;48.770;9.156;2024-03-29T08:14:17;9.20;1.00
1626;DHT22;806;48.770;9.156;2024-03-29T08:16:44;9.30;1.00
1626;DHT22;806;48.770;9.156;2024-03-29T08:19:11;9.30;1.00
1626;DHT22;806;48.770;9.156;2024-03-29T08:21:40;9.30;99.90
1626;DHT22;806;48.770;9.156;2024-03-29T08:24:07;9.20;1.00
1626;DHT22;806;48.770;9.156;2024-03-29T08:26:34;9.30;1.00
1626;DHT22;806;48.770;9.156;2024-03-29T08:29:00;9.20;99.90
1626;DHT22;806;48.770;9.156;2024-03-29T08:31:27;9.20;99.90
1626;DHT22;806;48.770;9.156;2024-03-29T08:33:54;9.20;1.00
1626;DHT22;806;48.770;9.156;2024-03-29T08:36:22;9.20;1.00
1626;DHT22;806;48.770;9.156;2024-03-29T08:38:50;9.30;1.00
1626;DHT22;806;48.770;9.156;2024-03-29T08:41:17;9.30;1.00
1626;DHT22;806;48.770;9.156;2024-03-29T08:43:44;9.30;1.00
1626;DHT22;806;48.770;9.156;2024-03-29T08:46:11;9.40;1.00
1626;DHT22;806;48.770;9.156;2024-03-29T08:48:38;9.50;1.00
1626;DHT22;806;48.770;9.156;2024-03-29T08:51:08;9.40;1.00
1626;DHT22;806;48.770;9.156;2024-03-29T08:53:36;9.30;1.00
1626;DHT22;806;48.770;9.156;2024-03-29T08:56:04;9.30;20.30
1626;DHT22;806;48.770;9.156;2024-03-29T08:58:31;9.30;42.90
1626;DHT22;806;48.770;9.156;2024-03-29T09:00:58;9.20;66.70
1626;DHT22;806;48.770;9.156;2024-03-29T09:03:29;9.20;99.80
1626;DHT22;806;48.770;9.156;2024-03-29T09:05:56;9.20;99.90
1626;DHT22;806;48.770;9.156;2024-03-29T09:08:23;9.30;99.90
1626;DHT22;806;48.770;9.156;2024-03-29T09:10:50;9.30;99.90
1626;DHT22;806;48.770;9.156;2024-03-29T09:13:19;9.30;99.90
1626;DHT22;806;48.770;9.156;2024-03-29T09:15:46;9.50;99.90
1626;DHT22;806;48.770;9.156;2024-03-29T09:18:13;9.70;99.90
1626;DHT22;806;48.770;9.156;2024-03-29T09:20:56;9.90;99.90
1626;DHT22;806;48.770;9.156;2024-03-29T09:23:23;10.10;99.90
1626;DHT22;806;48.770;9.156;2024-03-29T09:25:51;10.10;99.90
1626;DHT22;806;48.770;9.156;2024-03-29T09:28:19;10.20;99.90
1626;DHT22;806;48.770;9.156;2024-03-29T09:30:47;10.40;99.90
1626;DHT22;806;48.770;9.156;2024-03-29T09:33:14;10.50;99.90
1626;DHT22;806;48.770;9.156;2024-03-29T09:35:41;10.60;99.90
1626;DHT22;806;48.770;9.156;2024-03-29T09:38:09;10.60;99.90
1626;DHT22;806;48.770;9.156;2024-03-29T09:40:36;10.50;99.90
1626;DHT22;806;48.770;9.156;2024-03-29T09:43:04;10.40;99.90
1626;DHT22;806;48.770;9.156;2024-03-29T09:45:34;10.20;99.90
1626;DHT22;806;48.770;9.156;2024-03-29T09:48:04;10.30;99.90
1626;DHT22;806;48.770;9.156;2024-03-29T09:50:33;10.30;99.90
1626;DHT22;806;48.770;9.156;2024-03-29T09:53:01;10.40;99.90
1626;DHT22;806;48.770;9.156;2024-03-29T09:55:29;10.60;99.90
1626;DHT22;806;48.770;9.156;2024-03-29T09:57:57;10.70;99.90
1626;DHT22;806;48.770;9.156;2024-03-29T10:00:27;10.90;99.90
1626;DHT22;806;48.770;9.156;2024-03-29T10:02:57;10.90;99.90
1626;DHT22;806;48.770;9.156;2024-03-29T10:05:24;11.00;99.90
1626;DHT22;806;48.770;9.156;2024-03-29T10:07:53;11.10;99.90
1626;DHT22;806;48.770;9.156;2024-03-29T10:10:20;11.20;99.90
1626;DHT22;806;48.770;9.156;2024-03-29T10:12:47;11.40;99.90
1626;DHT22;806;48.770;9.156;2024-03-29T10:15:14;11.60;99.90
1626;DHT22;806;48.770;9.156;2024-03-29T10:17:45;11.60;99.90
1626;DHT22;806;48.770;9.156;2024-03-29T10:20:17;11.70;99.90
1626;DHT22;806;48.770;9.156;2024-03-29T10:22:45;11.80;99.90
1626;DHT22;806;48.770;9.156;2024-03-29T10:25:13;12.00;99.90
1626;DHT22;806;48.770;9.156;2024-03-29T10:27:40;12.30;99.90
1626;DHT22;806;48.770;9.156;2024-03-29T10:30:08;12.50;99.90
1626;DHT22;806;48.770;9.156;2024-03-29T10:32:37;12.70;99.90
1626;DHT22;806;48.770;9.156;2024-03-29T10:35:06;12.70;99.90
1626;DHT22;806;48.770;9.156;2024-03-29T10:37:35;12.50;99.90
1626;DHT22;806;48.770;9.156;2024-03-29T10:40:07;12.60;99.90
1626;DHT22;806;48.770;9.156;2024-03-29T10:42:36;12.60;99.90
1626;DHT22;806;48.770;9.156;2024-03-29T10:45:05;12.70;99.90
1626;DHT22;806;48.770;9.156;2024-03-29T10:47:33;12.70;99.90
1626;DHT22;806;48.770;9.156;2024-03-29T10:50:01;12.70;99.90
1626;DHT22;806;48.770;9.156;2024-03-29T10:52:31;12.50;99.90
1626;DHT22;806;48.770;9.156;2024-03-29T10:54:59;12.30;99.90
1626;DHT22;806;48.770;9.156;2024-03-29T10:57:27;12.20;99.90
1626;DHT22;806;48.770;9.156;2024-03-29T11:00:03;12.40;99.90
1626;DHT22;806;48.770;9.156;2024-03-29T11:02:36;12.60;99.90
1626;DHT22;806;48.770;9.156;2024-03-29T11:05:09;12.90;99.90
1626;DHT22;806;48.770;9.156;2024-03-29T11:07:40;13.20;99.90
1626;DHT22;806;48.770;9.156;2024-03-29T11:10:14;13.50;99.90
1626;DHT22;806;48.770;9.156;2024-03-29T11:12:50;13.70;99.90
1626;DHT22;806;48.770;9.156;2024-03-29T11:15:28;13.60;99.90
1626;DHT22;806;48.770;9.156;2024-03-29T11:17:56;13.40;99.90
1626;DHT22;806;48.770;9.156;2024-03-29T11:20:24;13.30;99.90
1626;DHT22;806;48.770;9.156;2024-03-29T11:23:03;13.40;99.90
1626;DHT22;806;48.770;9.156;2024-03-29T11:25:43;13.50;99.90
1626;DHT22;806;48.770;9.156;2024-03-29T11:28:12;13.70;99.90
1626;DHT22;806;48.770;9.156;2024-03-29T11:30:42;13.90;99.90
1626;DHT22;806;48.770;9.156;2024-03-29T11:33:27;14.10;99.90
1626;DHT22;806;48.770;9.156;2024-03-29T11:35:55;14.10;99.90
1626;DHT22;806;48.770;9.156;2024-03-29T11:38:22;13.90;99.90
1626;DHT22;806;48.770;9.156;2024-03-29T11:41:04;14.00;99.90
1626;DHT22;806;48.770;9.156;2024-03-29T11:43:31;14.00;99.90
1626;DHT22;806;48.770;9.156;2024-03-29T11:45:59;14.10;99.90
1626;DHT22;806;48.770;9.156;2024-03-29T11:48:28;14.10;99.90
1626;DHT22;806;48.770;9.156;2024-03-29T11:50:57;14.10;99.90
1626;DHT22;806;48.770;9.156;2024-03-29T11:53:24;14.30;99.90
1626;DHT22;806;48.770;9.156;2024-03-29T11:55:53;14.50;99.90
1626;DHT22;806;48.770;9.156;2024-03-29T11:58:22;14.50;99.90
1626;DHT22;806;48.770;9.156;2024-03-29T12:00:50;14.40;99.90
1626;DHT22;806;48.770;9.156;2024-03-29T12:03:17;14.20;99.90
1626;DHT22;806;48.770;9.156;2024-03-29T12:05:46;14.10;99.90
1626;DHT22;806;48.770;9.156;2024-03-29T12:08:14;14.10;99.90
1626;DHT22;806;48.770;9.156;2024-03-29T12:10:41;14.20;99.90
1626;DHT22;806;48.770;9.156;2024-03-29T12:13:09;14.30;99.90
1626;DHT22;806;48.770;9.156;2024-03-29T12:15:37;14.20;99.90
1626;DHT22;806;48.770;9.156;2024-03-29T12:18:05;14.00;99.90
1626;DHT22;806;48.770;9.156;2024-03-29T12:20:32;14.00;99.90
1626;DHT22;806;48.770;9.156;2024-03-29T12:23:01;14.10;99.90
1626;DHT22;806;48.770;9.156;2024-03-29T12:25:28;14.30;99.90
1626;DHT22;806;48.770;9.156;2024-03-29T12:27:55;14.50;99.90
1626;DHT22;806;48.770;9.156;2024-03-29T12:30:23;14.80;99.90
1626;DHT22;806;48.770;9.156;2024-03-29T12:33:01;15.00;99.90
1626;DHT22;806;48.770;9.156;2024-03-29T12:35:29;15.20;99.90
1626;DHT22;806;48.770;9.156;2024-03-29T12:37:58;15.30;99.90
1626;DHT22;806;48.770;9.156;2024-03-29T12:40:26;15.30;99.90
1626;DHT22;806;48.770;9.156;2024-03-29T12:42:56;15.10;99.90
1626;DHT22;806;48.770;9.156;2024-03-29T12:45:24;15.20;99.90
1626;DHT22;806;48.770;9.156;2024-03-29T12:47:53;15.30;99.90
1626;DHT22;806;48.770;9.156;2024-03-29T12:50:26;15.50;99.90
1626;DHT22;806;48.770;9.156;2024-03-29T12:52:55;15.70;99.90
1626;DHT22;806;48.770;9.156;2024-03-29T12:55:23;16.00;99.90
1626;DHT22;806;48.770;9.156;2024-03-29T12:57:50;16.10;99.90
1626;DHT22;806;48.770;9.156;2024-03-29T13:00:19;16.00;99.90
1626;DHT22;806;48.770;9.156;2024-03-29T13:02:46;15.70;99.90
1626;DHT22;806;48.770;9.156;2024-03-29T13:05:14;15.70;99.90
1626;DHT22;806;48.770;9.156;2024-03-29T13:07:42;15.60;99.90
1626;DHT22;806;48.770;9.156;2024-03-29T13:10:10;15.80;99.90
1626;DHT22;806;48.770;9.156;2024-03-29T13:12:39;16.10;99.90
1626;DHT22;806;48.770;9.156;2024-03-29T13:15:16;16.40;99.90
1626;DHT22;806;48.770;9.156;2024-03-29T13:17:44;16.40;99.90
1626;DHT22;806;48.770;9.156;2024-03-29T13:20:12;16.60;99.90
1626;DHT22;806;48.770;9.156;2024-03-29T13:22:42;16.70;99.90
1626;DHT22;806;48.770;9.156;2024-03-29T13:25:11;16.70;99.90
1626;DHT22;806;48.770;9.156;2024-03-29T13:27:39;16.80;99.90
1626;DHT22;806;48.770;9.156;2024-03-29T13:30:08;16.90;99.90
1626;DHT22;806;48.770;9.156;2024-03-29T13:32:36;16.90;99.90
1626;DHT22;806;48.770;9.156;2024-03-29T13:35:04;16.80;99.90
1626;DHT22;806;48.770;9.156;2024-03-29T13:37:32;16.80;99.90
1626;DHT22;806;48.770;9.156;2024-03-29T13:40:00;16.80;99.90
1626;DHT22;806;48.770;9.156;2024-03-29T13:42:29;16.60;99.90
1626;DHT22;806;48.770;9.156;2024-03-29T13:44:56;16.60;99.90
1626;DHT22;806;48.770;9.156;2024-03-29T13:47:23;16.70;99.90
1626;DHT22;806;48.770;9.156;2024-03-29T13:49:50;16.60;99.90
1626;DHT22;806;48.770;9.156;2024-03-29T13:52:18;16.70;99.90
1626;DHT22;806;48.770;9.156;2024-03-29T13:54:46;16.80;99.90
1626;DHT22;806;48.770;9.156;2024-03-29T13:57:15;17.00;99.90
1626;DHT22;806;48.770;9.156;2024-03-29T13:59:43;17.10;99.90
1626;DHT22;806;48.770;9.156;2024-03-29T14:02:11;17.20;99.90
1626;DHT22;806;48.770;9.156;2024-03-29T14:04:39;17.20;99.90
1626;DHT22;806;48.770;9.156;2024-03-29T14:07:06;17.10;99.90
1626;DHT22;806;48.770;9.156;2024-03-29T14:09:34;17.20;99.90
1626;DHT22;806;48.770;9.156;2024-03-29T14:12:01;17.10;99.90
1626;DHT22;806;48.770;9.156;2024-03-29T14:14:30;16.90;99.90
1626;DHT22;806;48.770;9.156;2024-03-29T14:16:57;16.70;99.90
1626;DHT22;806;48.770;9.156;2024-03-29T14:19:28;16.70;99.90
1626;DHT22;806;48.770;9.156;2024-03-29T14:21:55;16.70;99.90
1626;DHT22;806;48.770;9.156;2024-03-29T14:24:23;16.80;99.90
1626;DHT22;806;48.770;9.156;2024-03-29T14:26:50;16.70;99.90
1626;DHT22;806;48.770;9.156;2024-03-29T14:29:17;16.70;99.90
1626;DHT22;806;48.770;9.156;2024-03-29T14:31:48;16.80;99.90
1626;DHT22;806;48.770;9.156;2024-03-29T14:34:15;16.70;99.90
1626;DHT22;806;48.770;9.156;2024-03-29T14:36:42;16.70;99.90
1626;DHT22;806;48.770;9.156;2024-03-29T14:39:08;16.90;99.90
1626;DHT22;806;48.770;9.156;2024-03-29T14:41:38;16.90;99.90
1626;DHT22;806;48.770;9.156;2024-03-29T14:44:05;17.00;99.90
1626;DHT22;806;48.770;9.156;2024-03-29T14:46:33;16.90;99.90
1626;DHT22;806;48.770;9.156;2024-03-29T14:49:02;17.00;99.90
1626;DHT22;806;48.770;9.156;2024-03-29T14:51:31;17.00;99.90
1626;DHT22;806;48.770;9.156;2024-03-29T14:53:58;17.10;99.90
1626;DHT22;806;48.770;9.156;2024-03-29T14:56:25;17.00;99.90
1626;DHT22;806;48.770;9.156;2024-03-29T14:58:52;16.90;99.90
1626;DHT22;806;48.770;9.156;2024-03-29T15:01:19;16.80;99.90
1626;DHT22;806;48.770;9.156;2024-03-29T15:03:46;16.80;99.90
1626;DHT22;806;48.770;9.156;2024-03-29T15:06:14;16.70;99.90
1626;DHT22;806;48.770;9.156;2024-03-29T15:08:41;16.60;99.90
1626;DHT22;806;48.770;9.156;2024-03-29T15:11:09;16.70;99.90
1626;DHT22;806;48.770;9.156;2024-03-29T15:13:36;16.80;99.90
1626;DHT22;806;48.770;9.156;2024-03-29T15:16:03;16.80;99.90
1626;DHT22;806;48.770;9.156;2024-03-29T15:18:31;16.80;99.90
1626;DHT22;806;48.770;9.156;2024-03-29T15:20:58;16.80;99.90
1626;DHT22;806;48.770;9.156;2024-03-29T15:23:28;16.90;99.90
1626;DHT22;806;48.770;9.156;2024-03-29T15:25:57;16.90;99.90
1626;DHT22;806;48.770;9.156;2024-03-29T15:28:25;17.00;99.90
1626;DHT22;806;48.770;9.156;2024-03-29T15:31:10;17.00;99.90
1626;DHT22;806;48.770;9.156;2024-03-29T15:33:38;17.10;99.90
1626;DHT22;806;48.770;9.156;2024-03-29T15:36:05;17.20;99.90
1626;DHT22;806;48.770;9.156;2024-03-29T15:38:35;17.10;99.90
1626;DHT22;806;48.770;9.156;2024-03-29T15:41:02;17.10;99.90
1626;DHT22;806;48.770;9.156;2024-03-29T15:43:30;17.10;99.90
1626;DHT22;806;48.770;9.156;2024-03-29T15:45:57;17.10;99.90
1626;DHT22;806;48.770;9.156;2024-03-29T15:48:24;17.10;99.90
1626;DHT22;806;48.770;9.156;2024-03-29T15:50:51;17.20;99.90
1626;DHT22;806;48.770;9.156;2024-03-29T15:53:19;17.10;99.90
1626;DHT22;806;48.770;9.156;2024-03-29T15:55:48;17.00;99.90
1626;DHT22;806;48.770;9.156;2024-03-29T15:58:15;17.10;99.90
1626;DHT22;806;48.770;9.156;2024-03-29T16:00:42;17.00;99.90
1626;DHT22;806;48.770;9.156;2024-03-29T16:03:10;17.00;99.90
1626;DHT22;806;48.770;9.156;2024-03-29T16:05:37;16.90;99.90
1626;DHT22;806;48.770;9.156;2024-03-29T16:08:04;17.00;99.90
1626;DHT22;806;48.770;9.156;2024-03-29T16:10:31;17.00;99.90
1626;DHT22;806;48.770;9.156;2024-03-29T16:13:00;17.00;99.90
1626;DHT22;806;48.770;9.156;2024-03-29T16:15:27;16.90;99.90
1626;DHT22;806;48.770;9.156;2024-03-29T16:17:54;16.90;99.90
1626;DHT22;806;48.770;9.156;2024-03-29T16:20:20;16.80;99.90
1626;DHT22;806;48.770;9.156;2024-03-29T16:22:47;16.80;99.90
1626;DHT22;806;48.770;9.156;2024-03-29T16:25:13;16.80;99.90
1626;DHT22;806;48.770;9.156;2024-03-29T16:27:42;16.70;99.90
1626;DHT22;806;48.770;9.156;2024-03-29T16:30:11;16.70;99.90
1626;DHT22;806;48.770;9.156;2024-03-29T16:32:38;16.70;99.90